MDT,Max TemperatureF,Mean TemperatureF,Min TemperatureF,Max Dew PointF,MeanDew PointF,Min DewpointF,Max Humidity, Mean Humidity, Min Humidity, Max Sea Level PressureIn, Mean Sea Level PressureIn, Min Sea Level PressureIn, Max VisibilityMiles, Mean VisibilityMiles, Min VisibilityMiles, Max Wind SpeedMPH, Mean Wind SpeedMPH, Max Gust SpeedMPH,PrecipitationIn, CloudCover, Events, WindDirDegrees
2012-9-1,79,66,55,58,55,52,93,72,43,30.12,29.98,29.88,10,10,6,15,7,22,0.29,3,Rain-Thunderstorm,129
2012-9-2,82,63,44,53,48,40,100,75,22,30.19,30.08,29.96,10,7,1,7,3,,0.00,1,,315
2012-9-3,86,67,50,50,45,39,86,54,20,30.09,30.01,29.94,10,10,10,10,2,,0.00,0,,224
2012-9-4,87,66,46,45,40,31,86,47,16,30.06,30.00,29.95,10,10,9,12,3,,0.00,0,,315
2012-9-5,86,64,43,42,35,26,82,45,12,30.09,30.00,29.91,10,10,10,10,2,,0.00,0,,227
2012-9-6,82,63,46,46,39,33,77,46,18,30.01,29.93,29.88,10,10,10,26,4,33,0.00,1,,26
2012-9-7,82,64,46,44,39,28,86,49,14,30.21,30.13,30.03,10,10,10,9,4,,0.00,0,,10
2012-9-8,84,62,42,41,36,24,80,45,12,30.26,30.16,30.06,10,10,10,8,2,,0.00,0,,36
2012-9-9,88,64,42,47,37,29,79,41,13,30.11,29.98,29.86,10,10,10,9,2,,0.00,0,,91
2012-9-10,82,70,57,55,48,43,70,45,28,30.05,29.87,29.78,10,10,10,15,6,20,0.00,3,Rain-Thunderstorm,137
2012-9-11,81,66,54,49,39,29,77,42,17,30.05,29.92,29.83,10,10,10,14,5,,0.00,2,,355
2012-9-12,75,55,35,33,26,17,76,41,11,30.30,30.18,30.05,10,10,10,8,3,,0.00,0,,308
2012-9-13,81,57,34,35,26,13,73,39,8,30.44,30.33,30.25,10,10,10,5,1,,0.00,0,,343
2012-9-14,84,60,37,35,30,22,79,40,11,30.33,30.23,30.13,10,10,10,8,1,,0.00,0,,77
2012-9-15,84,62,43,41,32,23,74,39,11,30.19,30.11,30.03,10,10,10,7,2,,0.00,0,,115
2012-9-16,84,64,45,39,33,27,74,36,13,30.10,30.01,29.93,10,10,10,13,4,,0.00,0,,285
2012-9-17,78,60,44,39,35,30,73,44,19,30.13,30.07,29.99,10,9,4,9,3,,0.00,0,,42
2012-9-18,78,58,39,38,34,29,83,45,17,30.22,30.13,30.06,10,8,5,7,2,,0.00,0,,117
2012-9-19,82,60,39,38,32,23,79,44,12,30.19,30.12,30.06,10,10,8,6,2,,0.00,0,,247
2012-9-20,82,62,42,37,33,29,73,44,14,30.20,30.12,30.03,10,10,10,6,1,,0.00,0,,289
2012-9-21,82,60,39,40,33,23,77,43,11,30.18,30.08,29.99,10,8,5,5,1,,0.00,0,,27
2012-9-22,84,62,39,38,33,24,77,41,11,30.14,30.04,29.97,10,8,6,6,2,,0.00,0,,69
2012-9-23,82,64,48,44,38,35,66,40,20,30.07,29.97,29.91,10,10,10,20,3,29,0.00,2,,319
2012-9-24,68,57,48,49,45,40,83,62,39,30.02,29.98,29.93,10,10,10,17,6,18,0.00,3,Rain,298
2012-9-25,70,54,39,49,43,36,93,64,40,30.02,29.97,29.92,10,10,10,10,2,,0.00,3,,313
2012-9-26,75,60,45,48,45,41,93,63,29,30.13,29.99,29.93,10,10,10,9,3,,0.00,2,,4
2012-9-27,77,59,41,46,43,39,96,63,28,30.20,30.07,30.00,10,9,2,6,1,,0.00,0,,321
2012-9-28,79,60,42,44,40,33,89,55,19,30.10,30.02,29.93,10,10,10,7,2,,0.00,0,,293
2012-9-29,81,61,43,43,38,34,86,49,20,30.12,30.06,29.99,10,10,10,10,3,,0.00,1,,325
2012-9-30,81,60,41,40,36,32,79,48,18,30.23,30.16,30.09,10,10,10,7,2,,0.00,0,,62